sensor_id;sensor_type;location;lat;lon;timestamp;noise_LAeq;noise_LA_min;noise_LA_max;noise_LA01;noise_LA95
67900;Laerm;54700;51.796;10.956;2023-12-29T00:00:55;47.26;37.54;59.79;;
67900;Laerm;54700;51.796;10.956;2023-12-29T00:03:23;47.41;36.87;65.01;;
67900;Laerm;54700;51.796;10.956;2023-12-29T00:05:50;41.28;36.45;53.13;;
67900;Laerm;54700;51.796;10.956;2023-12-29T00:08:17;46.04;35.49;59.62;;
67900;Laerm;54700;51.796;10.956;2023-12-29T00:10:44;53.47;36.98;66.16;;
67900;Laerm;54700;51.796;10.956;2023-12-29T00:13:11;50.12;40.21;62.30;;
67900;Laerm;54700;51.796;10.956;2023-12-29T00:15:38;51.94;39.14;63.52;;
67900;Laerm;54700;51.796;10.956;2023-12-29T00:18:05;49.18;35.49;63.74;;
67900;Laerm;54700;51.796;10.956;2023-12-29T00:20:33;49.05;37.16;66.01;;
67900;Laerm;54700;51.796;10.956;2023-12-29T00:23:00;52.79;38.01;69.25;;
67900;Laerm;54700;51.796;10.956;2023-12-29T00:25:27;52.73;35.46;68.84;;
67900;Laerm;54700;51.796;10.956;2023-12-29T00:27:53;46.22;37.05;64.99;;
67900;Laerm;54700;51.796;10.956;2023-12-29T00:30:20;45.87;35.55;60.87;;
67900;Laerm;54700;51.796;10.956;2023-12-29T00:32:47;52.71;37.00;69.96;;
67900;Laerm;54700;51.796;10.956;2023-12-29T00:35:14;45.06;36.22;55.39;;
67900;Laerm;54700;51.796;10.956;2023-12-29T00:37:42;53.61;34.59;70.33;;
67900;Laerm;54700;51.796;10.956;2023-12-29T00:40:10;38.29;32.74;55.22;;
67900;Laerm;54700;51.796;10.956;2023-12-29T00:42:37;45.92;33.01;66.92;;
67900;Laerm;54700;51.796;10.956;2023-12-29T00:45:05;42.85;32.89;59.44;;
67900;Laerm;54700;51.796;10.956;2023-12-29T00:47:33;43.97;34.79;57.45;;
67900;Laerm;54700;51.796;10.956;2023-12-29T00:50:00;44.05;33.51;53.98;;
67900;Laerm;54700;51.796;10.956;2023-12-29T00:52:27;45.06;35.02;62.60;;
67900;Laerm;54700;51.796;10.956;2023-12-29T00:54:56;46.53;35.51;56.25;;
67900;Laerm;54700;51.796;10.956;2023-12-29T00:57:23;45.47;35.62;60.42;;
67900;Laerm;54700;51.796;10.956;2023-12-29T00:59:49;44.32;34.06;60.62;;
67900;Laerm;54700;51.796;10.956;2023-12-29T01:02:16;44.09;32.74;58.67;;
67900;Laerm;54700;51.796;10.956;2023-12-29T01:04:43;53.12;32.48;67.48;;
67900;Laerm;54700;51.796;10.956;2023-12-29T01:07:10;52.68;32.45;68.11;;
67900;Laerm;54700;51.796;10.956;2023-12-29T01:09:38;39.37;31.61;50.37;;
67900;Laerm;54700;51.796;10.956;2023-12-29T01:12:07;47.57;31.64;65.48;;
67900;Laerm;54700;51.796;10.956;2023-12-29T01:14:34;41.55;33.31;57.11;;
67900;Laerm;54700;51.796;10.956;2023-12-29T01:17:00;38.33;33.38;46.71;;
67900;Laerm;54700;51.796;10.956;2023-12-29T01:19:27;39.43;33.06;51.52;;
67900;Laerm;54700;51.796;10.956;2023-12-29T01:21:55;50.29;32.92;67.30;;
67900;Laerm;54700;51.796;10.956;2023-12-29T01:24:21;51.45;32.60;74.10;;
67900;Laerm;54700;51.796;10.956;2023-12-29T01:26:48;36.24;30.42;53.31;;
67900;Laerm;54700;51.796;10.956;2023-12-29T01:29:16;50.41;30.70;66.25;;
67900;Laerm;54700;51.796;10.956;2023-12-29T01:31:43;43.68;32.43;56.75;;
67900;Laerm;54700;51.796;10.956;2023-12-29T01:34:10;39.47;31.95;56.73;;
67900;Laerm;54700;51.796;10.956;2023-12-29T01:36:37;49.04;30.25;64.61;;
67900;Laerm;54700;51.796;10.956;2023-12-29T01:39:04;49.94;32.34;64.34;;
67900;Laerm;54700;51.796;10.956;2023-12-29T01:41:31;49.12;33.94;64.36;;
67900;Laerm;54700;51.796;10.956;2023-12-29T01:44:19;39.58;31.28;54.94;;
67900;Laerm;54700;51.796;10.956;2023-12-29T01:46:48;41.84;32.35;60.09;;
67900;Laerm;54700;51.796;10.956;2023-12-29T01:49:15;50.57;30.48;67.30;;
67900;Laerm;54700;51.796;10.956;2023-12-29T01:51:43;45.02;33.28;58.08;;
67900;Laerm;54700;51.796;10.956;2023-12-29T01:54:12;53.41;33.06;69.36;;
67900;Laerm;54700;51.796;10.956;2023-12-29T01:56:40;43.76;30.85;60.40;;
67900;Laerm;54700;51.796;10.956;2023-12-29T01:59:08;42.29;33.74;57.53;;
67900;Laerm;54700;51.796;10.956;2023-12-29T02:01:37;49.39;31.57;65.58;;
67900;Laerm;54700;51.796;10.956;2023-12-29T02:04:05;33.25;30.11;45.13;;
67900;Laerm;54700;51.796;10.956;2023-12-29T02:06:34;34.29;29.80;51.43;;
67900;Laerm;54700;51.796;10.956;2023-12-29T02:09:01;31.53;29.03;40.71;;
67900;Laerm;54700;51.796;10.956;2023-12-29T02:11:29;39.17;29.94;54.85;;
67900;Laerm;54700;51.796;10.956;2023-12-29T02:13:59;32.32;29.53;49.64;;
67900;Laerm;54700;51.796;10.956;2023-12-29T02:16:40;37.19;30.38;53.51;;
67900;Laerm;54700;51.796;10.956;2023-12-29T02:19:20;35.40;29.75;49.83;;
67900;Laerm;54700;51.796;10.956;2023-12-29T02:21:51;50.02;29.66;66.39;;
67900;Laerm;54700;51.796;10.956;2023-12-29T02:24:17;33.54;29.83;41.37;;
67900;Laerm;54700;51.796;10.956;2023-12-29T02:26:50;31.80;29.79;36.36;;
67900;Laerm;54700;51.796;10.956;2023-12-29T02:29:20;52.98;29.53;69.11;;
67900;Laerm;54700;51.796;10.956;2023-12-29T02:31:51;37.35;30.60;55.70;;
67900;Laerm;54700;51.796;10.956;2023-12-29T02:34:19;36.09;31.22;48.57;;
67900;Laerm;54700;51.796;10.956;2023-12-29T02:36:49;49.13;30.79;65.12;;
67900;Laerm;54700;51.796;10.956;2023-12-29T02:39:17;32.66;29.47;37.73;;
67900;Laerm;54700;51.796;10.956;2023-12-29T02:41:45;32.72;29.90;40.12;;
67900;Laerm;54700;51.796;10.956;2023-12-29T02:44:12;43.88;29.43;63.02;;
67900;Laerm;54700;51.796;10.956;2023-12-29T02:46:39;49.94;29.53;65.12;;
67900;Laerm;54700;51.796;10.956;2023-12-29T02:49:06;35.40;30.21;54.87;;
67900;Laerm;54700;51.796;10.956;2023-12-29T02:51:37;54.49;30.27;72.83;;
67900;Laerm;54700;51.796;10.956;2023-12-29T02:54:06;33.28;30.14;41.98;;
67900;Laerm;54700;51.796;10.956;2023-12-29T02:56:33;33.44;29.42;46.42;;
67900;Laerm;54700;51.796;10.956;2023-12-29T02:59:02;50.80;31.40;67.75;;
67900;Laerm;54700;51.796;10.956;2023-12-29T03:01:29;40.95;31.11;57.92;;
67900;Laerm;54700;51.796;10.956;2023-12-29T03:03:55;40.05;33.15;57.00;;
67900;Laerm;54700;51.796;10.956;2023-12-29T03:06:23;49.39;31.99;64.96;;
67900;Laerm;54700;51.796;10.956;2023-12-29T03:08:50;42.42;32.22;57.30;;
67900;Laerm;54700;51.796;10.956;2023-12-29T03:11:18;35.96;32.20;52.33;;
67900;Laerm;54700;51.796;10.956;2023-12-29T03:13:45;49.83;32.55;66.71;;
67900;Laerm;54700;51.796;10.956;2023-12-29T03:16:13;40.50;33.23;57.13;;
67900;Laerm;54700;51.796;10.956;2023-12-29T03:18:40;42.38;35.12;60.81;;
67900;Laerm;54700;51.796;10.956;2023-12-29T03:21:09;44.13;34.65;63.20;;
67900;Laerm;54700;51.796;10.956;2023-12-29T03:23:35;51.81;35.15;67.23;;
67900;Laerm;54700;51.796;10.956;2023-12-29T03:26:02;46.30;34.25;61.79;;
67900;Laerm;54700;51.796;10.956;2023-12-29T03:28:29;54.01;33.83;69.28;;
67900;Laerm;54700;51.796;10.956;2023-12-29T03:30:56;40.30;34.05;62.15;;
67900;Laerm;54700;51.796;10.956;2023-12-29T03:33:24;53.34;36.21;67.60;;
67900;Laerm;54700;51.796;10.956;2023-12-29T03:35:51;58.24;50.22;72.35;;
67900;Laerm;54700;51.796;10.956;2023-12-29T03:38:18;53.90;42.22;67.79;;
67900;Laerm;54700;51.796;10.956;2023-12-29T03:40:45;47.53;38.02;69.46;;
67900;Laerm;54700;51.796;10.956;2023-12-29T03:43:12;46.35;35.02;62.14;;
67900;Laerm;54700;51.796;10.956;2023-12-29T03:45:42;46.29;35.14;64.54;;
67900;Laerm;54700;51.796;10.956;2023-12-29T03:48:09;52.18;35.70;68.30;;
67900;Laerm;54700;51.796;10.956;2023-12-29T03:50:37;44.80;33.32;60.13;;
67900;Laerm;54700;51.796;10.956;2023-12-29T03:53:04;50.34;34.77;66.12;;
67900;Laerm;54700;51.796;10.956;2023-12-29T03:55:31;55.31;33.31;76.71;;
67900;Laerm;54700;51.796;10.956;2023-12-29T03:58:02;39.06;34.15;49.65;;
67900;Laerm;54700;51.796;10.956;2023-12-29T04:00:29;49.63;33.24;65.96;;
67900;Laerm;54700;51.796;10.956;2023-12-29T04:02:55;45.16;35.92;60.13;;
67900;Laerm;54700;51.796;10.956;2023-12-29T04:05:22;42.22;33.46;60.71;;
67900;Laerm;54700;51.796;10.956;2023-12-29T04:07:50;49.07;35.36;66.27;;
67900;Laerm;54700;51.796;10.956;2023-12-29T04:10:17;54.56;37.12;69.38;;
67900;Laerm;54700;51.796;10.956;2023-12-29T04:12:44;55.65;34.82;71.49;;
67900;Laerm;54700;51.796;10.956;2023-12-29T04:15:13;54.86;34.36;73.18;;
67900;Laerm;54700;51.796;10.956;2023-12-29T04:17:41;53.09;35.61;67.75;;
67900;Laerm;54700;51.796;10.956;2023-12-29T04:20:08;51.29;35.21;64.18;;
67900;Laerm;54700;51.796;10.956;2023-12-29T04:22:35;54.10;36.29;66.92;;
67900;Laerm;54700;51.796;10.956;2023-12-29T04:25:04;58.94;35.73;74.39;;
67900;Laerm;54700;51.796;10.956;2023-12-29T04:27:31;56.18;36.53;70.20;;
67900;Laerm;54700;51.796;10.956;2023-12-29T04:29:58;49.62;35.34;63.04;;
67900;Laerm;54700;51.796;10.956;2023-12-29T04:32:25;56.20;36.80;72.62;;
67900;Laerm;54700;51.796;10.956;2023-12-29T04:34:52;58.68;35.93;76.72;;
67900;Laerm;54700;51.796;10.956;2023-12-29T04:37:19;56.50;36.76;70.30;;
67900;Laerm;54700;51.796;10.956;2023-12-29T04:39:46;50.56;38.28;64.66;;
67900;Laerm;54700;51.796;10.956;2023-12-29T04:42:14;55.90;38.29;68.44;;
67900;Laerm;54700;51.796;10.956;2023-12-29T04:44:41;53.26;39.09;70.13;;
67900;Laerm;54700;51.796;10.956;2023-12-29T04:47:08;58.84;37.84;70.70;;
67900;Laerm;54700;51.796;10.956;2023-12-29T04:49:34;60.89;39.54;72.08;;
67900;Laerm;54700;51.796;10.956;2023-12-29T04:52:03;59.92;40.85;75.59;;
67900;Laerm;54700;51.796;10.956;2023-12-29T04:54:30;58.45;37.35;73.32;;
67900;Laerm;54700;51.796;10.956;2023-12-29T04:56:57;42.14;37.08;55.95;;
67900;Laerm;54700;51.796;10.956;2023-12-29T04:59:25;60.60;38.31;73.21;;
67900;Laerm;54700;51.796;10.956;2023-12-29T05:01:52;54.29;41.00;68.21;;
67900;Laerm;54700;51.796;10.956;2023-12-29T05:04:22;49.42;39.05;61.45;;
67900;Laerm;54700;51.796;10.956;2023-12-29T05:06:48;56.89;39.98;72.40;;
67900;Laerm;54700;51.796;10.956;2023-12-29T05:09:15;58.70;36.97;71.19;;
67900;Laerm;54700;51.796;10.956;2023-12-29T05:11:42;53.15;37.38;68.46;;
67900;Laerm;54700;51.796;10.956;2023-12-29T05:14:09;57.61;38.22;68.89;;
67900;Laerm;54700;51.796;10.956;2023-12-29T05:16:37;58.52;40.54;70.50;;
67900;Laerm;54700;51.796;10.956;2023-12-29T05:19:04;54.08;38.54;67.04;;
67900;Laerm;54700;51.796;10.956;2023-12-29T05:21:31;57.12;36.68;71.17;;
67900;Laerm;54700;51.796;10.956;2023-12-29T05:23:58;54.88;37.87;70.71;;
67900;Laerm;54700;51.796;10.956;2023-12-29T05:26:25;59.80;39.92;69.67;;
67900;Laerm;54700;51.796;10.956;2023-12-29T05:28:52;55.95;38.87;69.83;;
67900;Laerm;54700;51.796;10.956;2023-12-29T05:31:18;54.20;37.93;69.84;;
67900;Laerm;54700;51.796;10.956;2023-12-29T05:33:47;59.13;38.57;73.25;;
67900;Laerm;54700;51.796;10.956;2023-12-29T05:36:13;62.11;37.95;70.51;;
67900;Laerm;54700;51.796;10.956;2023-12-29T05:38:40;59.62;36.72;70.19;;
67900;Laerm;54700;51.796;10.956;2023-12-29T05:41:06;56.95;36.05;70.93;;
67900;Laerm;54700;51.796;10.956;2023-12-29T05:43:36;58.36;40.27;70.70;;
67900;Laerm;54700;51.796;10.956;2023-12-29T05:46:03;59.88;42.32;70.08;;
67900;Laerm;54700;51.796;10.956;2023-12-29T05:48:35;57.77;40.35;69.69;;
67900;Laerm;54700;51.796;10.956;2023-12-29T05:51:07;60.92;39.82;72.15;;
67900;Laerm;54700;51.796;10.956;2023-12-29T05:53:34;59.58;43.06;71.77;;
67900;Laerm;54700;51.796;10.956;2023-12-29T05:56:00;59.03;34.97;71.07;;
67900;Laerm;54700;51.796;10.956;2023-12-29T05:58:27;59.19;36.47;75.02;;
67900;Laerm;54700;51.796;10.956;2023-12-29T06:00:57;56.91;36.45;70.58;;
67900;Laerm;54700;51.796;10.956;2023-12-29T06:03:24;56.57;37.49;70.65;;
67900;Laerm;54700;51.796;10.956;2023-12-29T06:05:51;44.08;35.28;57.32;;
67900;Laerm;54700;51.796;10.956;2023-12-29T06:08:19;61.91;40.74;72.79;;
67900;Laerm;54700;51.796;10.956;2023-12-29T06:10:46;59.94;41.41;71.99;;
67900;Laerm;54700;51.796;10.956;2023-12-29T06:13:13;57.03;37.21;70.06;;
67900;Laerm;54700;51.796;10.956;2023-12-29T06:15:40;58.99;36.82;71.92;;
67900;Laerm;54700;51.796;10.956;2023-12-29T06:18:07;57.68;37.27;70.38;;
67900;Laerm;54700;51.796;10.956;2023-12-29T06:20:34;59.39;38.79;71.73;;
67900;Laerm;54700;51.796;10.956;2023-12-29T06:23:02;59.86;38.95;69.76;;
67900;Laerm;54700;51.796;10.956;2023-12-29T06:25:33;57.77;36.59;71.85;;
67900;Laerm;54700;51.796;10.956;2023-12-29T06:28:00;60.51;38.47;74.53;;
67900;Laerm;54700;51.796;10.956;2023-12-29T06:30:28;57.96;37.66;72.59;;
67900;Laerm;54700;51.796;10.956;2023-12-29T06:32:55;60.02;37.90;68.56;;
67900;Laerm;54700;51.796;10.956;2023-12-29T06:35:22;60.51;38.84;75.69;;
67900;Laerm;54700;51.796;10.956;2023-12-29T06:37:52;61.96;39.46;74.51;;
67900;Laerm;54700;51.796;10.956;2023-12-29T06:40:18;59.24;38.85;68.41;;
67900;Laerm;54700;51.796;10.956;2023-12-29T06:42:47;59.81;39.67;71.79;;
67900;Laerm;54700;51.796;10.956;2023-12-29T06:45:14;60.53;41.80;73.31;;
67900;Laerm;54700;51.796;10.956;2023-12-29T06:47:41;60.29;41.84;69.49;;
67900;Laerm;54700;51.796;10.956;2023-12-29T06:50:08;60.55;45.61;68.74;;
67900;Laerm;54700;51.796;10.956;2023-12-29T06:52:38;59.45;39.72;71.16;;
67900;Laerm;54700;51.796;10.956;2023-12-29T06:55:06;60.42;40.95;74.87;;
67900;Laerm;54700;51.796;10.956;2023-12-29T06:57:33;59.29;40.08;68.76;;
67900;Laerm;54700;51.796;10.956;2023-12-29T07:00:02;63.18;45.09;71.91;;
67900;Laerm;54700;51.796;10.956;2023-12-29T07:02:29;59.70;42.29;68.90;;
67900;Laerm;54700;51.796;10.956;2023-12-29T07:04:56;59.64;39.60;73.80;;
67900;Laerm;54700;51.796;10.956;2023-12-29T07:07:23;60.16;41.61;71.99;;
67900;Laerm;54700;51.796;10.956;2023-12-29T07:09:50;55.28;38.61;69.36;;
67900;Laerm;54700;51.796;10.956;2023-12-29T07:12:17;61.51;41.73;72.16;;
67900;Laerm;54700;51.796;10.956;2023-12-29T07:14:43;58.54;39.26;76.70;;
67900;Laerm;54700;51.796;10.956;2023-12-29T07:17:12;56.76;39.95;68.16;;
67900;Laerm;54700;51.796;10.956;2023-12-29T07:19:39;60.62;38.69;71.42;;
67900;Laerm;54700;51.796;10.956;2023-12-29T07:22:06;58.92;41.39;69.33;;
67900;Laerm;54700;51.796;10.956;2023-12-29T07:24:34;58.21;38.76;69.54;;
67900;Laerm;54700;51.796;10.956;2023-12-29T07:27:02;60.76;42.07;72.44;;
67900;Laerm;54700;51.796;10.956;2023-12-29T07:29:29;59.48;45.36;68.52;;
67900;Laerm;54700;51.796;10.956;2023-12-29T07:31:56;60.04;45.28;72.57;;
67900;Laerm;54700;51.796;10.956;2023-12-29T07:34:26;56.96;41.99;70.48;;
67900;Laerm;54700;51.796;10.956;2023-12-29T07:36:53;60.35;44.58;71.64;;
67900;Laerm;54700;51.796;10.956;2023-12-29T07:39:20;61.06;43.45;73.34;;
67900;Laerm;54700;51.796;10.956;2023-12-29T07:41:46;60.67;42.83;74.24;;
67900;Laerm;54700;51.796;10.956;2023-12-29T07:44:16;60.94;43.11;70.12;;
67900;Laerm;54700;51.796;10.956;2023-12-29T07:46:43;62.61;46.08;73.37;;
67900;Laerm;54700;51.796;10.956;2023-12-29T07:49:10;59.54;41.12;70.88;;
67900;Laerm;54700;51.796;10.956;2023-12-29T07:51:40;60.83;43.05;72.23;;
67900;Laerm;54700;51.796;10.956;2023-12-29T07:54:08;63.82;47.90;75.31;;
67900;Laerm;54700;51.796;10.956;2023-12-29T07:56:34;63.97;44.08;75.59;;
67900;Laerm;54700;51.796;10.956;2023-12-29T07:59:05;60.74;43.57;71.43;;
67900;Laerm;54700;51.796;10.956;2023-12-29T08:01:32;63.44;46.51;73.58;;
67900;Laerm;54700;51.796;10.956;2023-12-29T08:04:05;62.13;41.66;74.94;;
67900;Laerm;54700;51.796;10.956;2023-12-29T08:06:33;61.41;42.29;71.98;;
67900;Laerm;54700;51.796;10.956;2023-12-29T08:09:03;61.39;42.65;70.23;;
67900;Laerm;54700;51.796;10.956;2023-12-29T08:11:32;63.17;40.47;78.04;;
67900;Laerm;54700;51.796;10.956;2023-12-29T08:13:59;63.70;45.39;73.51;;
67900;Laerm;54700;51.796;10.956;2023-12-29T08:16:26;62.24;48.06;70.13;;
67900;Laerm;54700;51.796;10.956;2023-12-29T08:18:53;62.98;41.61;73.46;;
67900;Laerm;54700;51.796;10.956;2023-12-29T08:21:20;61.40;41.19;70.85;;
67900;Laerm;54700;51.796;10.956;2023-12-29T08:23:47;61.56;41.73;70.23;;
67900;Laerm;54700;51.796;10.956;2023-12-29T08:26:15;64.05;51.26;73.90;;
67900;Laerm;54700;51.796;10.956;2023-12-29T08:28:45;61.11;42.01;70.29;;
67900;Laerm;54700;51.796;10.956;2023-12-29T08:31:12;63.10;45.84;76.42;;
67900;Laerm;54700;51.796;10.956;2023-12-29T08:33:39;65.25;44.63;72.66;;
67900;Laerm;54700;51.796;10.956;2023-12-29T08:36:06;63.91;47.88;72.29;;
67900;Laerm;54700;51.796;10.956;2023-12-29T08:38:33;60.45;40.74;70.62;;
67900;Laerm;54700;51.796;10.956;2023-12-29T08:41:00;63.41;45.77;71.16;;
67900;Laerm;54700;51.796;10.956;2023-12-29T08:43:28;61.29;44.32;71.67;;
67900;Laerm;54700;51.796;10.956;2023-12-29T08:45:56;62.28;40.69;73.62;;
67900;Laerm;54700;51.796;10.956;2023-12-29T08:48:24;64.19;43.64;73.07;;
67900;Laerm;54700;51.796;10.956;2023-12-29T08:50:51;63.49;39.46;72.10;;
67900;Laerm;54700;51.796;10.956;2023-12-29T08:53:18;62.52;41.26;70.73;;
67900;Laerm;54700;51.796;10.956;2023-12-29T08:55:45;62.16;41.73;72.35;;
67900;Laerm;54700;51.796;10.956;2023-12-29T08:58:12;62.69;41.12;75.93;;
67900;Laerm;54700;51.796;10.956;2023-12-29T09:00:40;63.88;50.21;71.28;;
67900;Laerm;54700;51.796;10.956;2023-12-29T09:03:08;63.01;43.56;70.36;;
67900;Laerm;54700;51.796;10.956;2023-12-29T09:05:35;62.96;43.39;73.04;;
67900;Laerm;54700;51.796;10.956;2023-12-29T09:08:02;64.59;50.47;74.67;;
67900;Laerm;54700;51.796;10.956;2023-12-29T09:10:30;62.80;46.20;71.78;;
67900;Laerm;54700;51.796;10.956;2023-12-29T09:12:57;62.31;46.21;69.74;;
67900;Laerm;54700;51.796;10.956;2023-12-29T09:15:24;64.15;51.64;73.85;;
67900;Laerm;54700;51.796;10.956;2023-12-29T09:17:52;63.48;52.17;71.69;;
67900;Laerm;54700;51.796;10.956;2023-12-29T09:20:20;63.69;44.61;74.55;;
67900;Laerm;54700;51.796;10.956;2023-12-29T09:22:47;64.23;44.50;77.84;;
67900;Laerm;54700;51.796;10.956;2023-12-29T09:25:14;60.85;45.01;71.00;;
67900;Laerm;54700;51.796;10.956;2023-12-29T09:27:41;63.81;48.84;71.82;;
67900;Laerm;54700;51.796;10.956;2023-12-29T09:30:10;62.53;46.11;72.66;;
67900;Laerm;54700;51.796;10.956;2023-12-29T09:32:38;65.27;42.27;74.65;;
67900;Laerm;54700;51.796;10.956;2023-12-29T09:35:09;64.64;53.36;71.01;;
67900;Laerm;54700;51.796;10.956;2023-12-29T09:37:36;65.08;47.75;79.07;;
67900;Laerm;54700;51.796;10.956;2023-12-29T09:40:04;65.39;50.01;80.81;;
67900;Laerm;54700;51.796;10.956;2023-12-29T09:42:31;63.14;50.07;71.47;;
67900;Laerm;54700;51.796;10.956;2023-12-29T09:45:02;62.71;43.66;70.18;;
67900;Laerm;54700;51.796;10.956;2023-12-29T09:47:33;65.15;51.24;79.14;;
67900;Laerm;54700;51.796;10.956;2023-12-29T09:50:02;63.41;44.14;70.95;;
67900;Laerm;54700;51.796;10.956;2023-12-29T09:52:32;63.71;49.57;71.16;;
67900;Laerm;54700;51.796;10.956;2023-12-29T09:55:00;63.87;47.37;71.55;;
67900;Laerm;54700;51.796;10.956;2023-12-29T09:57:28;62.97;43.70;72.90;;
67900;Laerm;54700;51.796;10.956;2023-12-29T09:59:57;62.57;40.27;73.20;;
67900;Laerm;54700;51.796;10.956;2023-12-29T10:02:29;62.56;40.41;71.65;;
67900;Laerm;54700;51.796;10.956;2023-12-29T10:05:01;64.42;51.78;72.96;;
67900;Laerm;54700;51.796;10.956;2023-12-29T10:07:40;64.15;49.88;74.51;;
67900;Laerm;54700;51.796;10.956;2023-12-29T10:10:15;62.17;43.59;74.77;;
67900;Laerm;54700;51.796;10.956;2023-12-29T10:12:57;64.35;49.94;71.35;;
67900;Laerm;54700;51.796;10.956;2023-12-29T10:15:34;65.21;49.78;71.76;;
67900;Laerm;54700;51.796;10.956;2023-12-29T10:18:12;64.49;49.23;71.20;;
67900;Laerm;54700;51.796;10.956;2023-12-29T10:20:45;64.18;50.94;71.45;;
67900;Laerm;54700;51.796;10.956;2023-12-29T10:23:19;63.30;42.03;73.53;;
67900;Laerm;54700;51.796;10.956;2023-12-29T10:25:47;65.29;51.51;72.74;;
67900;Laerm;54700;51.796;10.956;2023-12-29T10:28:16;64.88;44.60;71.92;;
67900;Laerm;54700;51.796;10.956;2023-12-29T10:30:43;64.75;46.27;70.41;;
67900;Laerm;54700;51.796;10.956;2023-12-29T10:33:10;65.15;45.66;76.83;;
67900;Laerm;54700;51.796;10.956;2023-12-29T10:35:38;64.08;47.57;75.31;;
67900;Laerm;54700;51.796;10.956;2023-12-29T10:38:09;65.72;51.85;76.91;;
67900;Laerm;54700;51.796;10.956;2023-12-29T10:40:38;65.00;52.39;77.14;;
67900;Laerm;54700;51.796;10.956;2023-12-29T10:43:05;64.85;42.53;74.18;;
67900;Laerm;54700;51.796;10.956;2023-12-29T10:45:34;64.66;47.52;70.46;;
67900;Laerm;54700;51.796;10.956;2023-12-29T10:48:02;62.45;45.40;72.34;;
67900;Laerm;54700;51.796;10.956;2023-12-29T10:50:42;63.34;43.07;71.60;;
67900;Laerm;54700;51.796;10.956;2023-12-29T10:53:13;66.40;54.00;79.95;;
67900;Laerm;54700;51.796;10.956;2023-12-29T10:55:41;64.86;44.53;74.57;;
67900;Laerm;54700;51.796;10.956;2023-12-29T10:58:08;64.66;45.91;72.61;;
67900;Laerm;54700;51.796;10.956;2023-12-29T11:00:35;65.22;43.02;73.66;;
67900;Laerm;54700;51.796;10.956;2023-12-29T11:03:04;64.53;43.09;74.18;;
67900;Laerm;54700;51.796;10.956;2023-12-29T11:05:32;64.16;46.28;74.40;;
67900;Laerm;54700;51.796;10.956;2023-12-29T11:08:00;64.48;47.01;72.90;;
67900;Laerm;54700;51.796;10.956;2023-12-29T11:10:27;63.62;47.64;72.00;;
67900;Laerm;54700;51.796;10.956;2023-12-29T11:12:58;64.72;42.96;72.57;;
67900;Laerm;54700;51.796;10.956;2023-12-29T11:15:26;63.33;46.32;72.55;;
67900;Laerm;54700;51.796;10.956;2023-12-29T11:17:55;63.71;44.51;72.73;;
67900;Laerm;54700;51.796;10.956;2023-12-29T11:20:23;65.78;44.88;73.12;;
67900;Laerm;54700;51.796;10.956;2023-12-29T11:22:54;64.96;49.65;73.56;;
67900;Laerm;54700;51.796;10.956;2023-12-29T11:25:21;63.87;44.72;73.47;;
67900;Laerm;54700;51.796;10.956;2023-12-29T11:27:48;65.03;45.78;72.90;;
67900;Laerm;54700;51.796;10.956;2023-12-29T11:30:17;63.96;43.98;72.73;;
67900;Laerm;54700;51.796;10.956;2023-12-29T11:32:49;62.12;43.53;73.00;;
67900;Laerm;54700;51.796;10.956;2023-12-29T11:35:20;66.91;49.43;75.28;;
67900;Laerm;54700;51.796;10.956;2023-12-29T11:38:15;63.63;43.86;71.68;;
67900;Laerm;54700;51.796;10.956;2023-12-29T11:40:50;65.32;51.51;72.96;;
67900;Laerm;54700;51.796;10.956;2023-12-29T11:43:19;64.29;43.33;71.56;;
67900;Laerm;54700;51.796;10.956;2023-12-29T11:45:49;67.77;45.43;79.34;;
67900;Laerm;54700;51.796;10.956;2023-12-29T11:48:55;65.42;50.33;74.27;;
67900;Laerm;54700;51.796;10.956;2023-12-29T11:51:30;66.68;52.27;74.82;;
67900;Laerm;54700;51.796;10.956;2023-12-29T11:53:58;65.84;44.51;72.67;;
67900;Laerm;54700;51.796;10.956;2023-12-29T11:56:30;63.17;45.06;71.99;;
67900;Laerm;54700;51.796;10.956;2023-12-29T11:59:16;65.44;48.01;72.71;;
67900;Laerm;54700;51.796;10.956;2023-12-29T12:01:47;64.79;47.97;74.85;;
67900;Laerm;54700;51.796;10.956;2023-12-29T12:04:34;63.83;45.59;72.62;;
67900;Laerm;54700;51.796;10.956;2023-12-29T12:07:04;64.36;45.52;72.61;;
67900;Laerm;54700;51.796;10.956;2023-12-29T12:09:32;63.56;47.22;71.19;;
67900;Laerm;54700;51.796;10.956;2023-12-29T12:12:01;65.33;50.92;77.60;;
67900;Laerm;54700;51.796;10.956;2023-12-29T12:14:53;63.78;50.53;76.02;;
67900;Laerm;54700;51.796;10.956;2023-12-29T12:17:33;66.27;49.98;77.88;;
67900;Laerm;54700;51.796;10.956;2023-12-29T12:20:04;65.72;51.56;75.78;;
67900;Laerm;54700;51.796;10.956;2023-12-29T12:22:34;60.67;43.60;71.39;;
67900;Laerm;54700;51.796;10.956;2023-12-29T12:25:03;62.64;47.14;71.20;;
67900;Laerm;54700;51.796;10.956;2023-12-29T12:27:31;65.36;52.85;75.12;;
67900;Laerm;54700;51.796;10.956;2023-12-29T12:29:59;64.84;52.66;73.26;;
67900;Laerm;54700;51.796;10.956;2023-12-29T12:32:29;65.25;47.61;73.58;;
67900;Laerm;54700;51.796;10.956;2023-12-29T12:35:00;67.28;46.93;78.28;;
67900;Laerm;54700;51.796;10.956;2023-12-29T12:37:30;65.22;50.04;75.76;;
67900;Laerm;54700;51.796;10.956;2023-12-29T12:39:57;63.89;42.73;71.42;;
67900;Laerm;54700;51.796;10.956;2023-12-29T12:42:25;65.94;48.65;78.17;;
67900;Laerm;54700;51.796;10.956;2023-12-29T12:45:04;64.04;49.22;73.53;;
67900;Laerm;54700;51.796;10.956;2023-12-29T12:47:34;64.74;46.50;73.31;;
67900;Laerm;54700;51.796;10.956;2023-12-29T12:50:07;65.44;47.68;75.37;;
67900;Laerm;54700;51.796;10.956;2023-12-29T12:52:35;65.39;51.58;72.91;;
67900;Laerm;54700;51.796;10.956;2023-12-29T12:55:04;64.73;47.44;77.30;;
67900;Laerm;54700;51.796;10.956;2023-12-29T12:57:32;66.61;50.75;74.95;;
67900;Laerm;54700;51.796;10.956;2023-12-29T13:00:00;67.66;56.40;76.08;;
67900;Laerm;54700;51.796;10.956;2023-12-29T13:02:31;66.11;51.67;77.69;;
67900;Laerm;54700;51.796;10.956;2023-12-29T13:05:01;65.36;50.07;73.56;;
67900;Laerm;54700;51.796;10.956;2023-12-29T13:07:32;63.91;45.40;72.40;;
67900;Laerm;54700;51.796;10.956;2023-12-29T13:09:59;63.51;46.88;71.37;;
67900;Laerm;54700;51.796;10.956;2023-12-29T13:12:27;64.64;50.69;75.56;;
67900;Laerm;54700;51.796;10.956;2023-12-29T13:15:04;65.21;51.58;73.65;;
67900;Laerm;54700;51.796;10.956;2023-12-29T13:17:33;65.94;50.32;76.30;;
67900;Laerm;54700;51.796;10.956;2023-12-29T13:20:00;65.39;46.66;72.89;;
67900;Laerm;54700;51.796;10.956;2023-12-29T13:22:28;64.74;44.89;72.33;;
67900;Laerm;54700;51.796;10.956;2023-12-29T13:24:57;63.52;45.99;72.17;;
67900;Laerm;54700;51.796;10.956;2023-12-29T13:27:24;62.96;45.30;72.25;;
67900;Laerm;54700;51.796;10.956;2023-12-29T13:29:51;65.49;47.14;73.22;;
67900;Laerm;54700;51.796;10.956;2023-12-29T13:32:20;65.44;52.11;74.73;;
67900;Laerm;54700;51.796;10.956;2023-12-29T13:34:53;64.08;46.44;72.13;;
67900;Laerm;54700;51.796;10.956;2023-12-29T13:37:25;64.82;46.36;72.65;;
67900;Laerm;54700;51.796;10.956;2023-12-29T13:40:02;64.53;51.98;78.88;;